Time;durP1;ratioP1;P1;durP2;ratioP2;P2;SDS_P1;SDS_P2;PMS_P1;PMS_P2;Temp;Humidity;BMP_temperature;BMP_pressure;BME280_temperature;BME280_humidity;BME280_pressure;Samples;Min_cycle;Max_cycle;Signal;HPM_P1;HPM_P2
2022/06/08 00:02:19;;;;;;;12.82;2.42;;;;;;;19.62;61.05;100552.84;4976022;28;20410;-68
2022/06/08 00:04:46;;;;;;;13.80;2.72;;;;;;;19.46;61.56;100552.22;4991452;28;20062;-68
2022/06/08 00:07:14;;;;;;;13.32;2.75;;;;;;;19.52;61.22;100553.50;4962643;28;20053;-68
2022/06/08 00:09:41;;;;;;;14.00;2.70;;;;;;;19.60;61.21;100541.25;4977072;28;20043;-71
2022/06/08 00:12:09;;;;;;;14.00;2.83;;;;;;;19.62;61.25;100540.84;4968060;28;20422;-68
2022/06/08 00:14:37;;;;;;;12.25;2.30;;;;;;;19.64;61.21;100536.50;4976218;28;20070;-68
2022/06/08 00:17:04;;;;;;;16.27;3.03;;;;;;;19.48;61.46;100533.09;4992637;28;20130;-63
2022/06/08 00:19:32;;;;;;;12.20;2.72;;;;;;;19.57;61.50;100530.81;4977427;28;20046;-62
2022/06/08 00:21:59;;;;;;;11.63;2.30;;;;;;;19.44;61.77;100525.84;4975725;28;20046;-64
2022/06/08 00:24:27;;;;;;;14.43;2.80;;;;;;;19.52;61.69;100519.97;4974642;28;20054;-63
2022/06/08 00:26:54;;;;;;;8.82;1.92;;;;;;;19.41;61.63;100524.59;4974181;28;20058;-63
2022/06/08 00:29:23;;;;;;;16.52;2.58;;;;;;;19.57;61.01;100522.44;4991187;28;20069;-65
2022/06/08 00:31:53;;;;;;;12.20;2.35;;;;;;;19.48;61.47;100521.91;4976033;28;20058;-64
2022/06/08 00:34:20;;;;;;;10.80;2.75;;;;;;;19.44;61.74;100523.84;4998025;28;20050;-64
2022/06/08 00:36:48;;;;;;;18.85;2.80;;;;;;;19.58;61.51;100523.25;4974367;28;20553;-65
2022/06/08 00:39:15;;;;;;;10.65;2.60;;;;;;;19.49;61.67;100512.34;4983769;28;20047;-64
2022/06/08 00:41:55;;;;;;;13.73;3.00;;;;;;;19.61;61.49;100500.94;4946571;28;20502;-63
2022/06/08 00:44:28;;;;;;;13.32;2.63;;;;;;;19.62;62.10;100499.75;4978217;28;20070;-70
2022/06/08 00:46:55;;;;;;;12.07;2.65;;;;;;;19.54;62.68;100495.25;4990745;28;20059;-70
2022/06/08 00:49:30;;;;;;;10.75;2.50;;;;;;;19.31;63.65;100491.75;4991257;28;20046;-65
2022/06/08 00:52:00;;;;;;;11.90;2.20;;;;;;;19.38;63.76;100502.19;4975407;28;20051;-69
2022/06/08 00:54:31;;;;;;;15.70;2.95;;;;;;;19.30;64.72;100506.88;4977721;28;20526;-64
2022/06/08 00:57:02;;;;;;;14.95;2.80;;;;;;;19.47;63.83;100503.56;4981115;28;20526;-64
2022/06/08 00:59:30;;;;;;;11.93;2.50;;;;;;;19.34;64.59;100496.56;4964161;28;20068;-64
2022/06/08 01:01:57;;;;;;;14.73;2.65;;;;;;;19.11;65.34;100483.84;4960831;28;20619;-63
2022/06/08 01:04:29;;;;;;;14.00;2.55;;;;;;;19.02;66.09;100490.47;4963502;28;20407;-68
2022/06/08 01:06:58;;;;;;;11.82;3.25;;;;;;;19.04;66.47;100490.09;4998270;28;20057;-68
2022/06/08 01:09:36;;;;;;;12.70;2.55;;;;;;;19.01;66.53;100493.66;4974668;28;20057;-70
2022/06/08 01:12:10;;;;;;;11.00;2.53;;;;;;;18.96;67.46;100488.38;4991229;28;20055;-69
2022/06/08 01:14:41;;;;;;;12.15;2.90;;;;;;;19.07;67.42;100483.78;4961019;28;20061;-68
2022/06/08 01:17:16;;;;;;;10.80;2.83;;;;;;;18.91;67.71;100486.72;4977385;28;20081;-69
2022/06/08 01:19:48;;;;;;;13.07;2.38;;;;;;;18.94;67.96;100494.34;4978859;28;20398;-64
2022/06/08 01:22:20;;;;;;;12.18;2.50;;;;;;;18.97;67.91;100492.78;4980657;28;20073;-64
2022/06/08 01:24:51;;;;;;;16.30;3.55;;;;;;;18.99;67.79;100488.44;4973523;28;20063;-69
2022/06/08 01:27:36;;;;;;;14.10;3.10;;;;;;;18.99;67.61;100490.41;4970906;28;20554;-67
2022/06/08 01:30:14;;;;;;;12.57;2.65;;;;;;;18.91;68.12;100467.19;4959125;28;20466;-63
2022/06/08 01:33:16;;;;;;;18.17;3.20;;;;;;;18.78;68.34;100464.97;4972964;28;20073;-64
2022/06/08 01:36:16;;;;;;;13.20;2.63;;;;;;;18.79;68.46;100486.13;4990597;28;20055;-64
2022/06/08 01:39:06;;;;;;;16.88;2.55;;;;;;;18.67;68.64;100481.53;4961856;28;20051;-68
2022/06/08 01:41:56;;;;;;;15.77;3.00;;;;;;;18.88;67.96;100462.34;4987430;28;20061;-69
2022/06/08 01:45:28;;;;;;;11.15;2.70;;;;;;;18.81;68.11;100473.38;4958323;28;20049;-64
2022/06/08 01:47:56;;;;;;;13.43;2.90;;;;;;;18.87;67.29;100493.41;4949631;29;20663;-68
2022/06/08 01:50:50;;;;;;;17.20;2.50;;;;;;;18.76;68.07;100498.81;4971361;28;20122;-68
2022/06/08 01:53:39;;;;;;;15.15;3.03;;;;;;;18.65;68.08;100497.84;4977864;28;20502;-68
2022/06/08 01:56:34;;;;;;;13.50;2.33;;;;;;;18.87;67.67;100488.66;4961845;28;20059;-69
2022/06/08 01:59:20;;;;;;;10.25;2.40;;;;;;;18.62;68.26;100481.06;4961590;28;20053;-67
2022/06/08 02:02:19;;;;;;;14.25;2.55;;;;;;;18.64;68.17;100482.28;4960329;28;20056;-68
2022/06/08 02:04:48;;;;;;;12.48;3.13;;;;;;;18.70;68.55;100474.41;4993774;28;20046;-68
2022/06/08 02:07:27;;;;;;;13.40;2.92;;;;;;;18.67;68.85;100473.16;4970749;28;20058;-64
2022/06/08 02:10:07;;;;;;;10.77;2.47;;;;;;;18.81;67.74;100464.22;4982702;28;20063;-64
2022/06/08 02:12:38;;;;;;;9.50;2.45;;;;;;;18.61;69.00;100457.13;4988413;28;20053;-68
2022/06/08 02:15:18;;;;;;;12.98;3.05;;;;;;;18.67;69.14;100462.00;4978676;28;20066;-68
2022/06/08 02:17:55;;;;;;;14.18;3.22;;;;;;;18.55;70.07;100469.78;4958062;28;20055;-68
2022/06/08 02:20:39;;;;;;;11.88;2.40;;;;;;;18.56;70.36;100461.03;4968705;28;20051;-68
2022/06/08 02:23:14;;;;;;;11.15;2.42;;;;;;;18.41;71.16;100467.53;4988387;28;20053;-64
2022/06/08 02:25:45;;;;;;;16.67;3.45;;;;;;;18.69;70.20;100472.81;4959573;28;20062;-64
2022/06/08 02:28:21;;;;;;;15.10;3.25;;;;;;;18.36;71.53;100478.19;4978492;28;20061;-68
2022/06/08 02:30:52;;;;;;;15.93;2.65;;;;;;;18.36;71.87;100480.97;4970408;28;20051;-68
2022/06/08 02:36:25;;;;;;;10.77;2.10;;;;;;;18.17;73.18;100475.41;4977021;28;20051;-68
2022/06/08 02:39:33;;;;;;;10.88;2.70;;;;;;;18.01;73.99;100477.50;4981225;28;20066;-68
2022/06/08 02:42:11;;;;;;;11.77;2.40;;;;;;;18.01;74.43;100469.16;4985368;28;20039;-68
2022/06/08 02:44:39;;;;;;;12.68;2.75;;;;;;;18.11;73.94;100471.31;4964612;28;20051;-67
2022/06/08 02:47:32;;;;;;;13.77;2.55;;;;;;;18.19;73.84;100470.28;4978851;28;20046;-69
2022/06/08 02:50:11;;;;;;;12.85;2.63;;;;;;;18.15;73.93;100459.06;4959422;28;20058;-68
2022/06/08 02:52:43;;;;;;;12.35;3.25;;;;;;;17.73;75.56;100449.91;4977209;28;20450;-68
2022/06/08 02:55:19;;;;;;;13.40;2.38;;;;;;;17.79;75.72;100454.00;4977674;28;20055;-64
2022/06/08 02:58:01;;;;;;;13.25;2.72;;;;;;;17.85;75.86;100447.75;4977086;28;20051;-64
2022/06/08 03:00:37;;;;;;;14.60;2.55;;;;;;;17.96;75.81;100445.16;4935147;28;20418;-69
2022/06/08 03:03:16;;;;;;;12.30;2.58;;;;;;;17.83;75.58;100443.72;4967799;28;20046;-68
2022/06/08 03:05:45;;;;;;;12.90;3.17;;;;;;;17.73;76.81;100450.69;4983745;28;20054;-67
2022/06/08 03:08:22;;;;;;;17.00;3.25;;;;;;;17.60;78.39;100440.06;4967444;28;20062;-68
2022/06/08 03:10:51;;;;;;;16.88;3.42;;;;;;;17.69;78.70;100435.09;4978666;28;20063;-68
2022/06/08 03:13:26;;;;;;;17.00;3.15;;;;;;;17.64;79.40;100415.88;4985384;28;20062;-63
2022/06/08 03:16:00;;;;;;;12.20;2.90;;;;;;;17.68;78.81;100409.19;4962011;28;20058;-67
2022/06/08 03:18:29;;;;;;;14.82;3.00;;;;;;;17.63;78.68;100395.56;4981591;28;20046;-63
2022/06/08 03:20:59;;;;;;;14.98;2.58;;;;;;;17.41;79.91;100398.28;4960894;28;20712;-64
2022/06/08 03:23:31;;;;;;;19.70;3.63;;;;;;;17.44;80.50;100394.75;4992961;28;20641;-68
2022/06/08 03:25:58;;;;;;;13.35;2.97;;;;;;;17.36;80.91;100387.44;4975430;28;20062;-69
2022/06/08 03:28:28;;;;;;;16.93;2.67;;;;;;;17.32;81.10;100384.56;4976550;28;20054;-67
2022/06/08 03:30:56;;;;;;;12.40;3.05;;;;;;;17.27;81.34;100379.31;4986906;28;20305;-68
2022/06/08 03:33:24;;;;;;;15.05;3.03;;;;;;;17.14;81.93;100382.59;4984164;28;20524;-68
2022/06/08 03:35:52;;;;;;;15.23;2.95;;;;;;;17.28;81.72;100375.34;4969938;28;20508;-68
2022/06/08 03:38:23;;;;;;;14.95;3.63;;;;;;;17.05;83.03;100387.56;4976148;28;20067;-69
2022/06/08 03:40:52;;;;;;;13.98;3.20;;;;;;;16.94;84.05;100376.19;4991754;28;20153;-68
2022/06/08 03:43:19;;;;;;;12.38;2.92;;;;;;;17.02;84.26;100383.53;4977661;28;20051;-68
2022/06/08 03:45:49;;;;;;;11.38;2.92;;;;;;;17.01;84.79;100379.13;4980158;28;20061;-63
2022/06/08 03:48:17;;;;;;;;;;;;;;;16.98;85.38;100371.50;4992366;28;20046;-67
2022/06/08 03:50:48;;;;;;;13.90;3.47;;;;;;;17.02;85.74;100372.41;4991900;28;19937;-68
2022/06/08 03:53:19;;;;;;;13.88;3.70;;;;;;;16.89;86.75;100368.94;4960620;28;20054;-64
2022/06/08 03:55:48;;;;;;;14.73;3.10;;;;;;;17.14;85.70;100366.69;4976530;28;20066;-63
2022/06/08 03:58:16;;;;;;;17.83;4.88;;;;;;;17.17;86.11;100365.97;4983897;28;20050;-68
2022/06/08 04:00:45;;;;;;;21.70;10.50;;;;;;;17.05;85.65;100370.88;4978515;28;20057;-68
2022/06/08 04:03:16;;;;;;;15.20;6.30;;;;;;;17.08;85.96;100367.34;4991370;28;20502;-62
2022/06/08 04:05:46;;;;;;;13.57;3.38;;;;;;;17.11;85.39;100364.66;4993732;28;20061;-62
2022/06/08 04:08:18;;;;;;;11.23;3.28;;;;;;;17.05;86.10;100365.31;4983607;28;20051;-63
2022/06/08 04:10:53;;;;;;;17.33;3.97;;;;;;;17.11;86.29;100361.03;4992610;28;20495;-63
2022/06/08 04:13:21;;;;;;;13.43;3.25;;;;;;;17.15;86.20;100359.16;4958159;28;20063;-64
2022/06/08 04:15:52;;;;;;;13.20;3.45;;;;;;;17.02;86.72;100358.47;4963450;28;20521;-68
2022/06/08 04:18:25;;;;;;;14.88;3.60;;;;;;;16.94;87.69;100345.59;4957886;28;20058;-68
2022/06/08 04:21:00;;;;;;;13.65;3.63;;;;;;;17.05;86.93;100343.81;4959368;28;20062;-67
2022/06/08 04:23:36;;;;;;;14.55;3.75;;;;;;;17.07;87.12;100338.72;4988583;28;20062;-69
2022/06/08 04:26:04;;;;;;;17.63;3.90;;;;;;;16.91;88.98;100335.22;4989938;28;20054;-67
2022/06/08 04:28:32;;;;;;;14.23;3.97;;;;;;;16.97;88.66;100332.91;4975448;28;20050;-67
2022/06/08 04:31:05;;;;;;;14.77;3.58;;;;;;;16.97;87.80;100333.72;4969786;28;20058;-68
2022/06/08 04:33:36;;;;;;;12.55;3.95;;;;;;;16.95;87.74;100329.69;4991759;28;20058;-68
2022/06/08 04:36:11;;;;;;;16.58;3.80;;;;;;;16.84;87.84;100326.72;4976651;28;20058;-67
2022/06/08 04:38:39;;;;;;;12.68;3.60;;;;;;;16.89;88.60;100329.19;4975193;28;20051;-69
2022/06/08 04:41:07;;;;;;;13.30;3.65;;;;;;;16.76;89.57;100328.53;4959101;28;20074;-63
2022/06/08 04:43:35;;;;;;;13.18;3.28;;;;;;;17.15;87.73;100328.53;4977982;28;20043;-64
2022/06/08 04:46:03;;;;;;;15.70;4.00;;;;;;;16.97;88.36;100332.91;4968432;28;20055;-63
2022/06/08 04:48:32;;;;;;;16.35;4.93;;;;;;;17.15;87.41;100320.19;4978541;28;20061;-63
2022/06/08 04:51:01;;;;;;;13.27;3.97;;;;;;;17.06;88.35;100319.59;4984108;28;20061;-68
2022/06/08 04:53:31;;;;;;;13.70;3.45;;;;;;;17.04;88.33;100317.19;4981796;28;20046;-64
2022/06/08 04:55:58;;;;;;;12.98;3.80;;;;;;;16.84;89.10;100307.22;4983755;28;20061;-63
2022/06/08 04:58:27;;;;;;;14.52;4.22;;;;;;;16.83;90.16;100316.72;4964490;28;20498;-63
2022/06/08 05:00:55;;;;;;;14.75;3.83;;;;;;;16.91;90.01;100312.13;4982545;28;20055;-68
2022/06/08 05:03:23;;;;;;;13.82;3.63;;;;;;;16.84;90.40;100313.59;4990803;28;20047;-68
2022/06/08 05:05:51;;;;;;;12.18;3.45;;;;;;;17.00;89.60;100302.38;4978537;28;20051;-69
2022/06/08 05:08:27;;;;;;;12.32;3.05;;;;;;;17.13;89.25;100298.28;4989373;28;20521;-68
2022/06/08 05:10:57;;;;;;;15.40;3.22;;;;;;;17.02;88.91;100296.44;4974923;28;20069;-64
2022/06/08 05:13:26;;;;;;;9.27;3.13;;;;;;;16.94;89.53;100292.72;4974991;28;20070;-64
2022/06/08 05:16:05;;;;;;;10.07;3.33;;;;;;;16.84;90.21;100294.09;4990775;28;20066;-70
2022/06/08 05:18:35;;;;;;;7.32;2.58;;;;;;;16.88;90.26;100299.75;4982571;28;20050;-69
2022/06/08 05:21:06;;;;;;;11.05;3.15;;;;;;;16.85;89.77;100292.13;4974733;28;20057;-69
2022/06/08 05:23:37;;;;;;;13.73;3.60;;;;;;;16.83;89.13;100300.03;4991177;28;20049;-65
2022/06/08 05:26:12;;;;;;;13.15;3.83;;;;;;;16.97;89.23;100294.78;4961220;28;20054;-64
2022/06/08 05:28:42;;;;;;;10.98;3.72;;;;;;;16.99;88.40;100288.84;4970837;28;20061;-65
2022/06/08 05:31:10;;;;;;;14.43;3.83;;;;;;;16.78;89.73;100286.44;4982898;28;20103;-65
2022/06/08 05:33:43;;;;;;;8.25;2.92;;;;;;;16.99;88.58;100288.84;4965146;28;20051;-70
2022/06/08 05:36:17;;;;;;;11.73;3.30;;;;;;;16.91;89.06;100282.34;4960154;28;20355;-64
2022/06/08 05:38:47;;;;;;;;;;;;;;;16.86;89.01;100285.41;4974843;28;20065;-63
2022/06/08 05:41:15;;;;;;;10.27;5.15;;;;;;;16.81;89.26;100285.69;4971271;28;19926;-68
2022/06/08 05:43:43;;;;;;;7.70;3.03;;;;;;;17.00;89.52;100282.91;4969869;28;20042;-68
2022/06/08 05:46:13;;;;;;;8.45;2.83;;;;;;;16.95;89.19;100279.59;4976018;28;20051;-65
2022/06/08 05:48:43;;;;;;;8.43;2.50;;;;;;;17.05;88.67;100288.16;4964433;28;20047;-64
2022/06/08 05:51:13;;;;;;;8.25;2.38;;;;;;;16.87;89.12;100275.91;4982377;28;20059;-64
2022/06/08 05:53:41;;;;;;;8.40;2.70;;;;;;;16.96;88.92;100279.28;4976443;28;20058;-65
2022/06/08 05:56:10;;;;;;;9.02;2.65;;;;;;;17.01;88.95;100281.75;4963187;28;20524;-64
2022/06/08 05:58:41;;;;;;;15.13;4.90;;;;;;;16.92;88.95;100283.13;4974384;28;20051;-69
2022/06/08 06:01:09;;;;;;;9.27;3.38;;;;;;;16.56;90.81;100290.72;4990519;28;20534;-70
2022/06/08 06:03:37;;;;;;;9.70;2.47;;;;;;;16.76;90.84;100275.66;4990586;28;20047;-69
2022/06/08 06:06:05;;;;;;;8.38;2.47;;;;;;;16.69;89.88;100281.09;4973678;28;20065;-69
2022/06/08 06:08:33;;;;;;;7.57;2.50;;;;;;;16.80;90.23;100278.53;4974052;28;20057;-69
2022/06/08 06:11:06;;;;;;;9.75;2.53;;;;;;;16.93;89.19;100281.97;4983127;28;20405;-69
2022/06/08 06:13:41;;;;;;;5.10;2.20;;;;;;;16.80;89.65;100286.88;4972565;28;20055;-69
2022/06/08 06:16:13;;;;;;;9.02;2.47;;;;;;;16.69;90.96;100286.66;4991400;28;20054;-69
2022/06/08 06:18:42;;;;;;;8.15;2.38;;;;;;;16.89;90.46;100285.47;4946283;28;20047;-66
2022/06/08 06:21:20;;;;;;;7.28;2.00;;;;;;;17.02;89.70;100290.88;4973608;28;20047;-68
2022/06/08 06:24:13;;;;;;;10.57;3.00;;;;;;;16.99;89.78;100286.88;4975417;28;20055;-68
2022/06/08 06:27:02;;;;;;;7.82;3.17;;;;;;;17.11;89.77;100288.69;4959426;28;20047;-68
2022/06/08 06:29:34;;;;;;;9.93;4.03;;;;;;;17.20;89.12;100292.06;4976164;28;20081;-67
2022/06/08 06:32:18;;;;;;;6.35;2.03;;;;;;;17.24;88.58;100290.97;4974864;28;20059;-68
2022/06/08 06:34:49;;;;;;;5.20;2.00;;;;;;;17.32;88.44;100300.25;4979939;28;20050;-69
2022/06/08 06:37:17;;;;;;;8.77;3.83;;;;;;;17.32;87.66;100297.47;4963790;28;20055;-67
2022/06/08 06:39:46;;;;;;;7.05;2.30;;;;;;;17.41;87.62;100304.41;4978594;28;20066;-69
2022/06/08 06:42:20;;;;;;;4.38;1.70;;;;;;;17.30;87.87;100297.00;4975606;28;20055;-67
2022/06/08 06:44:57;;;;;;;6.13;2.05;;;;;;;17.38;87.32;100299.56;4974492;28;20046;-67
2022/06/08 06:47:35;;;;;;;6.60;1.65;;;;;;;17.48;87.19;100303.78;4959897;28;20055;-67
2022/06/08 06:50:14;;;;;;;3.72;1.42;;;;;;;17.49;86.97;100308.16;4968666;28;20416;-68
2022/06/08 06:52:42;;;;;;;6.90;1.73;;;;;;;17.48;87.15;100310.16;4960547;28;20059;-68
2022/06/08 06:55:22;;;;;;;4.45;1.60;;;;;;;17.47;85.99;100308.53;4977469;28;20306;-68
2022/06/08 06:57:51;;;;;;;4.50;1.85;;;;;;;17.21;87.20;100302.81;4977295;28;20061;-67
2022/06/08 07:00:22;;;;;;;5.18;1.50;;;;;;;17.30;87.37;100300.63;4976163;28;20055;-69
2022/06/08 07:02:50;;;;;;;3.58;1.33;;;;;;;17.48;86.35;100304.59;4977053;28;20484;-68
2022/06/08 07:05:21;;;;;;;7.70;2.55;;;;;;;17.55;85.78;100298.34;4992156;28;20054;-69
2022/06/08 07:07:49;;;;;;;4.70;2.10;;;;;;;17.25;86.68;100306.47;4993764;28;20062;-69
2022/06/08 07:10:18;;;;;;;4.60;1.75;;;;;;;17.30;87.11;100302.59;4977422;28;20046;-67
2022/06/08 07:12:46;;;;;;;5.32;1.20;;;;;;;17.47;86.46;100304.97;4977639;28;20066;-67
2022/06/08 07:15:16;;;;;;;3.25;1.20;;;;;;;17.45;86.37;100307.28;4977961;28;20061;-67
2022/06/08 07:17:43;;;;;;;4.15;1.23;;;;;;;17.66;85.67;100300.13;4993118;28;20062;-68
2022/06/08 07:20:13;;;;;;;2.70;1.20;;;;;;;17.43;86.51;100309.63;4993115;28;20051;-67
2022/06/08 07:22:40;;;;;;;4.03;1.20;;;;;;;17.52;86.41;100304.66;4992529;28;20057;-67
2022/06/08 07:25:08;;;;;;;7.38;1.23;;;;;;;17.43;86.69;100312.41;4976370;28;20054;-68
2022/06/08 07:27:35;;;;;;;3.97;1.52;;;;;;;17.39;86.90;100311.50;4976936;28;20066;-68
2022/06/08 07:30:05;;;;;;;3.53;1.30;;;;;;;17.44;86.50;100312.03;4976832;28;20047;-68
2022/06/08 07:32:32;;;;;;;9.80;5.33;;;;;;;17.71;85.53;100304.59;4977029;28;20074;-67
2022/06/08 07:35:02;;;;;;;7.45;4.80;;;;;;;17.81;85.56;100303.97;4972389;28;20058;-68
2022/06/08 07:37:29;;;;;;;5.37;1.70;;;;;;;17.57;86.18;100321.84;4977602;28;20059;-68
2022/06/08 07:39:56;;;;;;;3.70;1.33;;;;;;;17.37;86.74;100320.25;4981450;28;20069;-67
2022/06/08 07:42:24;;;;;;;3.78;1.58;;;;;;;17.44;87.91;100308.44;4982972;28;20059;-68
2022/06/08 07:44:51;;;;;;;3.25;1.25;;;;;;;17.52;87.69;100299.88;4962267;28;20058;-68
2022/06/08 07:47:18;;;;;;;7.65;1.15;;;;;;;17.70;86.80;100305.75;4978481;28;20058;-68
2022/06/08 07:49:49;;;;;;;5.78;1.00;;;;;;;17.66;86.60;100299.34;4980969;28;20421;-68
2022/06/08 07:52:19;;;;;;;4.97;1.48;;;;;;;17.64;86.98;100294.13;4957445;28;20042;-68
2022/06/08 07:54:48;;;;;;;5.68;1.40;;;;;;;17.74;86.70;100295.50;4977380;28;20054;-69
2022/06/08 07:57:19;;;;;;;6.78;1.55;;;;;;;17.88;86.05;100298.53;4987564;28;20499;-68
2022/06/08 07:59:47;;;;;;;5.88;1.65;;;;;;;18.11;85.23;100304.06;4974322;28;20055;-67
2022/06/08 08:02:15;;;;;;;10.82;2.10;;;;;;;18.09;85.71;100304.44;4986127;28;20061;-68
2022/06/08 08:04:43;;;;;;;4.65;1.88;;;;;;;18.09;86.45;100300.84;4978219;28;20045;-69
2022/06/08 08:07:11;;;;;;;3.42;1.48;;;;;;;18.35;86.33;100289.72;4986638;28;20055;-69
2022/06/08 08:09:39;;;;;;;6.15;1.63;;;;;;;18.48;85.26;100285.56;4990521;28;20065;-68
2022/06/08 08:12:07;;;;;;;8.77;1.60;;;;;;;18.55;84.62;100283.66;4977903;28;20689;-69
2022/06/08 08:14:34;;;;;;;4.05;0.93;;;;;;;18.89;83.45;100288.13;4973187;28;20046;-69
2022/06/08 08:17:03;;;;;;;5.13;1.00;;;;;;;18.97;83.69;100286.22;4973777;28;20506;-68
2022/06/08 08:19:32;;;;;;;2.40;1.00;;;;;;;19.10;82.41;100287.59;4991658;28;20062;-68
2022/06/08 08:22:00;;;;;;;3.47;1.07;;;;;;;19.09;79.38;100281.19;4960859;28;20053;-68
2022/06/08 08:24:28;;;;;;;9.32;0.90;;;;;;;19.15;79.15;100273.28;4964570;28;20505;-65
2022/06/08 08:26:56;;;;;;;14.80;1.30;;;;;;;19.16;80.90;100276.88;4958268;28;20051;-69
2022/06/08 08:29:23;;;;;;;2.22;0.73;;;;;;;19.06;79.70;100272.78;4985116;28;20061;-64
2022/06/08 08:31:50;;;;;;;4.05;0.88;;;;;;;19.34;80.19;100267.53;4991836;28;20415;-65
2022/06/08 08:34:18;;;;;;;3.50;0.70;;;;;;;19.53;80.02;100281.31;4972948;28;20055;-65
2022/06/08 08:36:47;;;;;;;2.58;1.02;;;;;;;19.52;79.86;100281.69;4974769;28;20438;-68
2022/06/08 08:39:15;;;;;;;9.82;1.10;;;;;;;19.56;78.61;100286.13;4987461;28;20066;-68
2022/06/08 08:44:58;;;;;;;7.25;1.30;;;;;;;19.36;78.22;100287.50;4940649;28;20416;-63
2022/06/08 08:47:28;;;;;;;2.05;0.88;;;;;;;19.46;77.48;100299.97;4971924;28;20051;-63
2022/06/08 08:49:57;;;;;;;2.03;0.90;;;;;;;19.07;80.03;100291.16;4976018;28;20058;-65
2022/06/08 08:52:31;;;;;;;5.65;0.98;;;;;;;18.82;81.68;100303.97;4963272;28;20305;-62
2022/06/08 08:55:34;;;;;;;4.50;1.00;;;;;;;18.91;81.91;100294.16;4987435;28;20077;-62
2022/06/08 08:58:07;;;;;;;2.60;1.10;;;;;;;19.19;79.82;100299.25;4985639;28;20050;-65
2022/06/08 09:00:56;;;;;;;4.18;1.40;;;;;;;19.00;80.65;100303.00;4942740;28;20055;-63
2022/06/08 09:03:32;;;;;;;6.68;1.52;;;;;;;19.17;80.40;100306.41;4975984;28;20054;-61
2022/06/08 09:06:01;;;;;;;4.30;0.90;;;;;;;19.13;81.58;100306.34;4957690;28;20058;-62
2022/06/08 09:08:29;;;;;;;2.65;0.90;;;;;;;19.27;81.35;100306.53;4975904;28;20053;-63
2022/06/08 09:11:00;;;;;;;2.25;0.90;;;;;;;19.34;80.92;100309.44;4972786;28;20058;-62
2022/06/08 09:13:44;;;;;;;1.75;0.73;;;;;;;19.49;80.12;100302.03;4977203;28;20532;-63
2022/06/08 09:16:39;;;;;;;4.50;1.13;;;;;;;19.70;78.94;100305.03;4975007;28;20126;-63
2022/06/08 09:19:24;;;;;;;2.88;1.27;;;;;;;20.17;77.74;100307.06;4978113;28;20076;-61
2022/06/08 09:21:54;;;;;;;3.47;1.42;;;;;;;20.46;75.01;100306.06;4977213;28;20058;-64
2022/06/08 09:24:42;;;;;;;3.55;1.02;;;;;;;19.95;75.72;100306.06;4975528;28;20054;-63
2022/06/08 09:27:18;;;;;;;5.47;1.10;;;;;;;19.89;76.75;100302.81;4980376;28;20058;-63
2022/06/08 09:29:53;;;;;;;3.67;0.85;;;;;;;20.18;75.35;100289.91;4985134;28;20061;-62
2022/06/08 09:32:28;;;;;;;3.17;1.00;;;;;;;20.36;73.23;100302.03;4984841;28;20047;-63
2022/06/08 09:34:59;;;;;;;4.82;1.08;;;;;;;20.08;75.54;100302.56;4982559;28;20047;-63
2022/06/08 09:37:27;;;;;;;3.60;1.40;;;;;;;20.18;74.06;100303.88;4986024;28;20047;-64
2022/06/08 09:39:57;;;;;;;4.38;1.02;;;;;;;19.81;73.36;100303.94;4978450;28;20054;-63
2022/06/08 09:42:52;;;;;;;2.35;1.15;;;;;;;20.09;74.15;100301.38;4975874;28;20054;-62
2022/06/08 09:45:40;;;;;;;3.20;1.08;;;;;;;19.94;74.12;100294.09;4975537;28;20042;-62
2022/06/08 09:51:28;;;;;;;2.72;0.90;;;;;;;20.33;71.20;100297.19;4985523;28;20066;-63
2022/06/08 09:54:20;;;;;;;3.05;0.80;;;;;;;20.29;71.92;100301.16;4967303;28;20057;-63
2022/06/08 09:57:26;;;;;;;2.92;0.70;;;;;;;20.45;71.28;100280.09;4978096;28;20057;-62
2022/06/08 10:00:29;;;;;;;2.80;0.77;;;;;;;20.82;70.19;100291.91;4956356;28;20046;-63
2022/06/08 10:03:17;;;;;;;2.42;0.90;;;;;;;20.48;71.25;100292.50;4965525;28;20066;-61
2022/06/08 10:06:02;;;;;;;3.33;1.00;;;;;;;20.75;70.00;100286.28;4960522;28;20038;-63
2022/06/08 10:08:43;;;;;;;3.63;0.95;;;;;;;20.70;69.40;100275.44;4980304;28;20050;-62
2022/06/08 10:11:34;;;;;;;2.08;1.00;;;;;;;21.02;67.45;100267.22;4976505;28;20526;-63
2022/06/08 10:14:12;;;;;;;3.03;0.82;;;;;;;21.32;66.44;100264.13;4975335;28;20069;-66
2022/06/08 10:16:48;;;;;;;2.17;1.08;;;;;;;21.58;64.51;100263.78;4958422;29;20051;-64
2022/06/08 10:19:26;;;;;;;2.45;0.90;;;;;;;21.26;63.58;100260.91;4986375;28;20055;-63
2022/06/08 10:21:53;;;;;;;3.50;0.75;;;;;;;21.51;64.09;100258.97;4939365;28;20073;-64
2022/06/08 10:24:24;;;;;;;7.68;1.10;;;;;;;21.48;63.57;100270.94;4971778;28;20060;-65
2022/06/08 10:27:13;;;;;;;4.55;0.90;;;;;;;21.17;63.14;100266.88;4977994;28;21037;-64
2022/06/08 10:29:51;;;;;;;4.40;0.80;;;;;;;21.25;63.16;100265.69;4981324;28;20544;-63
2022/06/08 10:32:41;;;;;;;4.38;1.67;;;;;;;21.25;64.83;100278.91;4963622;28;20055;-63
2022/06/08 10:35:28;;;;;;;4.43;1.83;;;;;;;19.83;70.39;100295.16;4971240;28;20038;-62
2022/06/08 10:37:56;;;;;;;13.98;6.18;;;;;;;18.60;76.28;100299.28;4988999;28;20065;-64
2022/06/08 10:40:27;;;;;;;11.57;4.55;;;;;;;18.28;78.41;100286.81;4964284;28;20088;-66
2022/06/08 10:42:55;;;;;;;11.48;4.78;;;;;;;18.11;80.06;100302.09;4964197;28;20079;-65
2022/06/08 10:45:22;;;;;;;12.30;6.82;;;;;;;18.51;79.59;100299.56;4958785;28;21040;-66
2022/06/08 10:48:05;;;;;;;6.22;1.73;;;;;;;17.54;83.16;100291.16;4980225;28;20055;-64
2022/06/08 10:50:44;;;;;;;5.32;2.08;;;;;;;17.93;83.69;100299.03;4974876;28;20054;-65
2022/06/08 10:56:32;;;;;;;18.35;8.25;;;;;;;18.43;82.59;100306.19;4971159;28;20065;-64
2022/06/08 10:59:21;;;;;;;29.60;18.27;;;;;;;18.23;83.61;100306.66;4975154;28;20062;-65
2022/06/08 11:02:15;;;;;;;18.23;13.67;;;;;;;18.41;83.77;100302.97;4983310;28;20051;-66
2022/06/08 11:05:00;;;;;;;14.75;6.72;;;;;;;18.64;81.28;100312.09;4988831;28;20058;-62
2022/06/08 11:08:04;;;;;;;14.90;7.97;;;;;;;18.85;80.69;100303.19;4959107;28;20054;-64
2022/06/08 11:10:44;;;;;;;9.30;4.32;;;;;;;19.21;78.68;100296.91;4981059;28;20046;-63
2022/06/08 11:13:22;;;;;;;9.93;3.35;;;;;;;19.55;76.92;100292.09;4982540;28;20054;-64
2022/06/08 11:15:56;;;;;;;9.05;3.22;;;;;;;19.37;76.71;100294.69;4975724;28;20112;-63
2022/06/08 11:18:42;;;;;;;11.13;4.18;;;;;;;18.92;78.47;100320.84;4982917;28;20055;-62
2022/06/08 11:21:18;;;;;;;9.93;3.50;;;;;;;18.48;78.54;100314.25;4982616;28;20058;-63
2022/06/08 11:23:54;;;;;;;9.48;3.13;;;;;;;18.59;78.03;100304.06;4976260;28;20055;-63
2022/06/08 11:26:25;;;;;;;7.20;2.92;;;;;;;19.09;74.85;100305.50;4982299;28;20043;-64
2022/06/08 11:29:16;;;;;;;9.70;4.00;;;;;;;19.17;72.73;100300.81;4990442;28;20070;-64
2022/06/08 11:31:44;;;;;;;11.02;2.78;;;;;;;19.10;72.25;100293.16;4953010;28;20109;-64
2022/06/08 11:34:20;;;;;;;5.43;2.17;;;;;;;19.15;70.88;100287.25;4978719;28;20077;-64
2022/06/08 11:37:12;;;;;;;8.48;2.17;;;;;;;19.48;70.32;100295.63;4993503;28;20077;-66
2022/06/08 11:39:42;;;;;;;7.40;2.40;;;;;;;19.73;68.87;100287.50;4989301;28;20059;-64
2022/06/08 11:42:24;;;;;;;8.15;2.83;;;;;;;19.94;66.63;100305.28;4985868;28;20050;-63
2022/06/08 11:44:55;;;;;;;10.40;2.55;;;;;;;19.72;66.94;100299.84;4984643;28;20062;-63
2022/06/08 11:47:41;;;;;;;9.65;2.30;;;;;;;19.68;67.75;100285.84;4992285;28;20414;-64
2022/06/08 11:50:16;;;;;;;12.75;2.20;;;;;;;19.81;67.06;100291.94;4967747;28;20541;-64
2022/06/08 11:52:47;;;;;;;9.18;2.40;;;;;;;19.64;66.16;100303.75;4986364;28;20558;-64
2022/06/08 11:55:23;;;;;;;9.02;3.63;;;;;;;19.40;66.90;100299.53;4964504;28;20069;-65
2022/06/08 11:58:00;;;;;;;10.35;3.08;;;;;;;19.51;66.73;100297.63;4988228;28;20046;-63
2022/06/08 12:00:30;;;;;;;12.88;4.80;;;;;;;19.54;66.13;100310.88;4976911;28;20054;-63
2022/06/08 12:03:01;;;;;;;14.18;3.08;;;;;;;19.18;65.96;100300.44;4990612;28;20046;-65
2022/06/08 12:05:31;;;;;;;9.52;2.65;;;;;;;19.31;65.68;100304.63;4976902;28;20055;-64
2022/06/08 12:08:18;;;;;;;9.60;2.17;;;;;;;19.52;64.55;100306.84;4959343;28;20053;-64